Time;durP1;ratioP1;P1;durP2;ratioP2;P2;SDS_P1;SDS_P2;PMS_P1;PMS_P2;Temp;Humidity;BMP_temperature;BMP_pressure;BME280_temperature;BME280_humidity;BME280_pressure;Samples;Min_cycle;Max_cycle;Signal;HPM_P1;HPM_P2
2023/04/16 02:44:39;;;;;;;;;;;6.90;86.90;;;;;;6181758;23;19912;-96
2023/04/16 02:47:06;;;;;;;;;;;6.90;86.90;;;;;;6159443;23;19920;-96
2023/04/16 02:49:34;;;;;;;;;;;6.90;86.80;;;;;;6157765;23;19920;-96
2023/04/16 02:52:02;;;;;;;;;;;6.90;86.10;;;;;;6157339;23;19905;-96
2023/04/16 02:54:28;;;;;;;;;;;6.90;86.40;;;;;;6158403;23;19892;-96
2023/04/16 02:56:54;;;;;;;;;;;6.90;86.00;;;;;;6181839;23;19945;-96
2023/04/16 02:59:20;;;;;;;;;;;6.80;86.40;;;;;;6155538;23;19920;-96
2023/04/16 03:01:46;;;;;;;;;;;6.80;86.50;;;;;;6153718;23;19971;-96
2023/04/16 03:04:11;;;;;;;;;;;6.90;86.10;;;;;;6154096;23;19911;-96
2023/04/16 03:06:37;;;;;;;;;;;6.80;86.00;;;;;;6177937;23;19904;-96
2023/04/16 03:09:02;;;;;;;;;;;6.80;85.90;;;;;;6164191;23;19905;-96
2023/04/16 03:11:28;;;;;;;;;;;6.80;85.40;;;;;;6158618;23;19909;-96
2023/04/16 03:13:53;;;;;;;;;;;6.70;85.70;;;;;;6157311;23;19904;-95
2023/04/16 03:16:19;;;;;;;;;;;6.60;86.20;;;;;;6130776;23;19932;-95
2023/04/16 03:18:45;;;;;;;;;;;6.60;86.10;;;;;;6157192;23;19909;-94
2023/04/16 03:21:10;;;;;;;;;;;6.50;86.30;;;;;;6158007;23;19905;-95
2023/04/16 03:23:36;;;;;;;;;;;6.50;86.00;;;;;;6157323;23;19905;-95
2023/04/16 03:26:01;;;;;;;;;;;6.40;86.00;;;;;;6155298;23;20231;-94
2023/04/16 03:28:27;;;;;;;;;;;6.30;86.60;;;;;;6158414;23;19904;-94
2023/04/16 03:30:52;;;;;;;;;;;6.20;86.80;;;;;;6159136;23;19964;-96
2023/04/16 03:33:18;;;;;;;;;;;6.20;86.80;;;;;;6158348;23;19905;-96
2023/04/16 03:35:44;;;;;;;;;;;6.20;86.90;;;;;;6159232;23;19979;-94
2023/04/16 03:38:09;;;;;;;;;;;6.20;87.20;;;;;;6133243;23;20275;-95
2023/04/16 03:40:35;;;;;;;;;;;6.30;86.90;;;;;;6157524;23;19909;-95
2023/04/16 03:43:01;;;;;;;;;;;6.20;86.60;;;;;;6156881;23;19943;-94
2023/04/16 03:45:30;;;;;;;;;;;6.10;86.60;;;;;;6184467;23;19909;-96
2023/04/16 03:47:57;;;;;;;;;;;6.10;86.70;;;;;;6158921;23;19889;-96
2023/04/16 03:50:23;;;;;;;;;;;6.00;86.50;;;;;;6157922;23;19913;-96
2023/04/16 03:52:49;;;;;;;;;;;5.80;86.40;;;;;;6155590;23;19904;-96
2023/04/16 03:55:15;;;;;;;;;;;5.80;86.80;;;;;;6142030;23;20296;-96
2023/04/16 03:57:40;;;;;;;;;;;6.00;87.40;;;;;;6157004;23;19979;-94
2023/04/16 04:00:06;;;;;;;;;;;6.00;87.20;;;;;;6163078;23;20309;-96
2023/04/16 04:02:32;;;;;;;;;;;6.00;87.00;;;;;;6130749;23;19904;-95
2023/04/16 04:04:57;;;;;;;;;;;6.10;87.70;;;;;;6156321;23;19904;-94
2023/04/16 04:07:23;;;;;;;;;;;6.00;87.20;;;;;;6156550;23;19905;-94
2023/04/16 04:09:49;;;;;;;;;;;6.00;87.30;;;;;;6156319;23;19951;-94
2023/04/16 04:12:14;;;;;;;;;;;5.80;86.80;;;;;;6156343;23;19904;-94
2023/04/16 04:14:40;;;;;;;;;;;5.70;86.80;;;;;;6156350;23;19905;-94
2023/04/16 04:17:06;;;;;;;;;;;5.60;87.40;;;;;;6130197;23;19905;-95
2023/04/16 04:19:31;;;;;;;;;;;5.60;88.10;;;;;;6157855;23;20388;-94
2023/04/16 04:21:57;;;;;;;;;;;5.70;88.10;;;;;;6137065;23;19943;-95
2023/04/16 04:24:23;;;;;;;;;;;5.70;88.60;;;;;;6162037;23;19908;-95
2023/04/16 04:26:48;;;;;;;;;;;5.70;88.30;;;;;;6159301;23;20024;-95
2023/04/16 04:29:14;;;;;;;;;;;5.70;88.20;;;;;;6158241;23;19905;-94
2023/04/16 04:31:39;;;;;;;;;;;5.80;88.00;;;;;;6161791;23;20335;-96
2023/04/16 04:34:06;;;;;;;;;;;5.80;88.40;;;;;;6176644;23;19909;-95
2023/04/16 04:36:33;;;;;;;;;;;5.80;88.40;;;;;;6132734;23;20315;-95
2023/04/16 04:38:58;;;;;;;;;;;5.80;88.30;;;;;;6132630;23;20031;-94
2023/04/16 04:41:25;;;;;;;;;;;5.90;89.30;;;;;;6158210;23;19905;-94
2023/04/16 04:43:51;;;;;;;;;;;5.80;89.30;;;;;;6157950;23;20298;-94
2023/04/16 04:46:20;;;;;;;;;;;5.70;88.80;;;;;;6179114;23;19896;-96
2023/04/16 04:48:53;;;;;;;;;;;5.60;88.70;;;;;;6179580;23;19903;-96
2023/04/16 04:51:19;;;;;;;;;;;5.50;88.30;;;;;;6148110;23;19912;-96
2023/04/16 04:53:49;;;;;;;;;;;5.50;88.30;;;;;;6159060;23;19923;-96
2023/04/16 04:56:16;;;;;;;;;;;5.50;89.30;;;;;;6134866;23;19915;-96
2023/04/16 04:58:51;;;;;;;;;;;5.50;89.30;;;;;;6185448;23;19909;-96
2023/04/16 05:01:20;;;;;;;;;;;5.60;89.50;;;;;;6158566;23;19899;-96
2023/04/16 05:04:01;;;;;;;;;;;5.70;89.70;;;;;;6157350;23;20274;-94
2023/04/16 05:06:27;;;;;;;;;;;5.80;89.30;;;;;;6157950;23;19905;-94
2023/04/16 05:08:52;;;;;;;;;;;5.90;89.10;;;;;;6157861;23;20307;-95
2023/04/16 05:11:18;;;;;;;;;;;5.90;88.80;;;;;;6162281;23;19909;-94
2023/04/16 05:13:43;;;;;;;;;;;6.00;88.70;;;;;;6157835;23;19909;-94
2023/04/16 05:16:09;;;;;;;;;;;6.00;88.70;;;;;;6157760;23;19936;-94
2023/04/16 05:18:35;;;;;;;;;;;5.90;88.90;;;;;;6157724;23;20246;-94
2023/04/16 05:21:00;;;;;;;;;;;5.90;89.10;;;;;;6158061;23;19905;-94
2023/04/16 05:23:26;;;;;;;;;;;5.90;89.10;;;;;;6131571;23;19908;-94
2023/04/16 05:25:52;;;;;;;;;;;5.90;89.20;;;;;;6157809;23;19905;-93
2023/04/16 05:28:17;;;;;;;;;;;5.90;89.40;;;;;;6157679;23;19912;-94
2023/04/16 05:30:43;;;;;;;;;;;6.00;89.60;;;;;;6157204;23;19908;-94
2023/04/16 05:33:09;;;;;;;;;;;6.10;90.00;;;;;;6157691;23;19943;-94
2023/04/16 05:35:34;;;;;;;;;;;6.20;89.80;;;;;;6157607;23;19943;-94
2023/04/16 05:38:00;;;;;;;;;;;6.30;89.80;;;;;;6157551;23;19905;-94
2023/04/16 05:40:25;;;;;;;;;;;6.40;89.80;;;;;;6157494;23;19915;-93
2023/04/16 05:42:51;;;;;;;;;;;6.40;90.10;;;;;;6143030;23;19911;-96
2023/04/16 05:45:17;;;;;;;;;;;6.40;90.30;;;;;;6149710;23;19908;-96
2023/04/16 05:47:43;;;;;;;;;;;6.40;90.60;;;;;;6135063;23;19956;-94
2023/04/16 05:50:28;;;;;;;;;;;6.50;90.90;;;;;;6178700;23;19893;-96
2023/04/16 05:52:57;;;;;;;;;;;6.60;91.10;;;;;;6149994;23;19953;-96
2023/04/16 05:55:23;;;;;;;;;;;6.80;91.20;;;;;;6157096;23;19904;-96
2023/04/16 05:57:51;;;;;;;;;;;7.00;91.40;;;;;;6142876;23;19905;-95
2023/04/16 06:02:58;;;;;;;;;;;7.30;91.60;;;;;;6133426;23;19928;-96
2023/04/16 06:05:25;;;;;;;;;;;7.50;91.40;;;;;;6104386;23;19905;-96
2023/04/16 06:07:55;;;;;;;;;;;7.70;91.30;;;;;;6129008;23;19928;-96
2023/04/16 06:10:21;;;;;;;;;;;7.90;91.00;;;;;;6130886;23;19991;-96
2023/04/16 06:12:46;;;;;;;;;;;8.10;90.70;;;;;;6129598;23;19909;-95
2023/04/16 06:15:12;;;;;;;;;;;8.30;89.30;;;;;;6128425;23;20255;-95
2023/04/16 06:17:38;;;;;;;;;;;8.50;88.30;;;;;;6129628;23;19987;-95
2023/04/16 06:20:03;;;;;;;;;;;8.70;87.90;;;;;;6128118;23;19905;-95
2023/04/16 06:22:29;;;;;;;;;;;8.90;87.20;;;;;;6127721;23;19912;-94
2023/04/16 06:24:55;;;;;;;;;;;9.10;86.40;;;;;;6129835;23;19980;-96
2023/04/16 06:27:20;;;;;;;;;;;9.40;84.80;;;;;;6126545;23;19905;-94
2023/04/16 06:29:46;;;;;;;;;;;9.60;82.20;;;;;;6127612;23;19916;-95
2023/04/16 06:32:11;;;;;;;;;;;9.80;80.40;;;;;;6127827;23;19931;-95
2023/04/16 06:34:38;;;;;;;;;;;10.00;80.10;;;;;;6114760;23;20343;-96
2023/04/16 06:37:03;;;;;;;;;;;10.20;79.20;;;;;;6135539;23;19983;-96
2023/04/16 06:39:29;;;;;;;;;;;10.40;78.40;;;;;;6102258;23;20304;-96
2023/04/16 06:41:55;;;;;;;;;;;10.50;78.00;;;;;;6128504;23;19905;-96
2023/04/16 06:44:20;;;;;;;;;;;10.60;77.90;;;;;;6141648;23;19905;-96
2023/04/16 06:46:46;;;;;;;;;;;10.80;78.30;;;;;;6128629;23;19904;-96
2023/04/16 06:49:12;;;;;;;;;;;10.90;78.50;;;;;;6129683;23;19909;-95
2023/04/16 06:51:38;;;;;;;;;;;11.00;78.50;;;;;;6101570;23;20315;-95
2023/04/16 06:54:03;;;;;;;;;;;11.20;78.50;;;;;;6125881;23;19932;-95
2023/04/16 06:56:29;;;;;;;;;;;11.30;78.60;;;;;;6127833;23;20312;-96
2023/04/16 06:58:56;;;;;;;;;;;11.40;78.10;;;;;;6127749;23;19905;-95
2023/04/16 07:01:22;;;;;;;;;;;11.50;77.60;;;;;;6127163;23;19924;-95
2023/04/16 07:03:47;;;;;;;;;;;11.60;77.00;;;;;;6101063;23;19905;-94
2023/04/16 07:06:13;;;;;;;;;;;11.60;76.20;;;;;;6127357;23;19905;-95
2023/04/16 07:08:38;;;;;;;;;;;11.70;76.20;;;;;;6127351;23;19940;-95
2023/04/16 07:11:04;;;;;;;;;;;11.80;75.60;;;;;;6127158;23;19909;-95
2023/04/16 07:13:29;;;;;;;;;;;11.90;76.00;;;;;;6127396;23;19912;-95
2023/04/16 07:15:55;;;;;;;;;;;11.90;75.80;;;;;;6127330;23;19955;-95
2023/04/16 07:18:20;;;;;;;;;;;11.90;76.20;;;;;;6127248;23;19905;-95
2023/04/16 07:20:46;;;;;;;;;;;12.00;76.30;;;;;;6127273;23;19952;-95
2023/04/16 07:23:12;;;;;;;;;;;12.10;75.40;;;;;;6127232;23;19905;-95
2023/04/16 07:25:37;;;;;;;;;;;12.10;74.70;;;;;;6127191;23;19905;-95
2023/04/16 07:28:03;;;;;;;;;;;12.20;75.30;;;;;;6127259;23;19905;-94
2023/04/16 07:30:33;;;;;;;;;;;12.20;73.60;;;;;;6126926;23;19916;-94
2023/04/16 07:33:00;;;;;;;;;;;12.30;73.30;;;;;;6127689;23;19905;-94
2023/04/16 07:35:25;;;;;;;;;;;12.40;73.40;;;;;;6126607;23;19912;-95
2023/04/16 07:37:51;;;;;;;;;;;12.40;73.00;;;;;;6127151;23;19905;-95
2023/04/16 07:40:16;;;;;;;;;;;12.40;72.80;;;;;;6127122;23;19905;-95
2023/04/16 07:42:42;;;;;;;;;;;12.40;73.20;;;;;;6127217;23;20354;-94
2023/04/16 07:45:08;;;;;;;;;;;12.50;73.60;;;;;;6129465;23;20282;-95
2023/04/16 07:47:34;;;;;;;;;;;12.60;72.90;;;;;;6101193;23;19983;-94
2023/04/16 07:49:59;;;;;;;;;;;12.60;72.90;;;;;;6103205;23;19915;-95
2023/04/16 07:52:25;;;;;;;;;;;12.70;72.50;;;;;;6100988;23;19974;-95
2023/04/16 07:54:51;;;;;;;;;;;12.80;72.10;;;;;;6126937;23;19905;-95
2023/04/16 07:57:16;;;;;;;;;;;12.80;72.90;;;;;;6127324;23;20031;-95
2023/04/16 07:59:42;;;;;;;;;;;12.90;72.50;;;;;;6127719;23;20013;-95
2023/04/16 08:02:09;;;;;;;;;;;12.90;72.00;;;;;;6100501;23;19998;-95
2023/04/16 08:04:34;;;;;;;;;;;13.00;71.70;;;;;;6100861;23;19905;-95
2023/04/16 08:07:02;;;;;;;;;;;13.10;71.70;;;;;;6126012;23;20126;-94
2023/04/16 08:09:27;;;;;;;;;;;13.10;71.10;;;;;;6126734;23;19909;-95
2023/04/16 08:11:53;;;;;;;;;;;13.20;70.20;;;;;;6127231;23;19968;-94
2023/04/16 08:14:19;;;;;;;;;;;13.30;70.30;;;;;;6125222;23;20240;-95
2023/04/16 08:16:44;;;;;;;;;;;13.30;69.40;;;;;;6126901;23;19912;-95
2023/04/16 08:19:10;;;;;;;;;;;13.40;70.00;;;;;;6126769;23;20344;-95
2023/04/16 08:21:35;;;;;;;;;;;13.50;69.30;;;;;;6127032;23;19929;-95
2023/04/16 08:24:01;;;;;;;;;;;13.60;69.00;;;;;;6126932;23;19912;-95
2023/04/16 08:26:26;;;;;;;;;;;13.70;68.60;;;;;;6126821;23;19992;-95
2023/04/16 08:28:52;;;;;;;;;;;13.80;69.10;;;;;;6126838;23;19909;-95
2023/04/16 08:31:17;;;;;;;;;;;13.80;65.50;;;;;;6126770;23;19909;-95
2023/04/16 08:33:43;;;;;;;;;;;13.80;65.60;;;;;;6126836;23;19905;-94
2023/04/16 08:36:08;;;;;;;;;;;13.90;65.50;;;;;;6126753;23;19905;-95
2023/04/16 08:38:34;;;;;;;;;;;13.90;64.90;;;;;;6126757;23;19960;-95
2023/04/16 08:41:05;;;;;;;;;;;14.00;64.70;;;;;;6126656;23;19905;-95
2023/04/16 08:43:36;;;;;;;;;;;14.20;61.90;;;;;;6126750;23;19989;-94
2023/04/16 08:46:03;;;;;;;;;;;14.20;60.70;;;;;;6100756;23;19932;-95
2023/04/16 08:48:31;;;;;;;;;;;14.20;60.00;;;;;;6126822;23;19905;-95
2023/04/16 08:50:58;;;;;;;;;;;14.30;60.50;;;;;;6126632;23;19909;-94
2023/04/16 08:53:28;;;;;;;;;;;14.40;60.10;;;;;;6100782;23;19905;-95
2023/04/16 08:55:58;;;;;;;;;;;14.40;60.90;;;;;;6126650;23;19946;-95
2023/04/16 08:58:27;;;;;;;;;;;14.50;62.40;;;;;;6126687;23;19987;-95
2023/04/16 09:00:54;;;;;;;;;;;14.60;62.20;;;;;;6126497;23;19909;-95
2023/04/16 09:03:20;;;;;;;;;;;14.70;62.90;;;;;;6126313;23;19913;-95
2023/04/16 09:05:46;;;;;;;;;;;14.80;60.70;;;;;;6127235;23;19905;-94
2023/04/16 09:08:12;;;;;;;;;;;14.90;60.10;;;;;;6128381;23;19905;-94
2023/04/16 09:10:38;;;;;;;;;;;14.90;60.40;;;;;;6128199;23;19909;-94
2023/04/16 09:13:03;;;;;;;;;;;15.00;54.10;;;;;;6128328;23;19905;-95
2023/04/16 09:15:29;;;;;;;;;;;15.00;55.50;;;;;;6128368;23;19905;-94
2023/04/16 09:17:57;;;;;;;;;;;15.00;57.80;;;;;;6128299;23;19940;-95
2023/04/16 09:20:23;;;;;;;;;;;15.00;57.50;;;;;;6128184;23;19932;-94
2023/04/16 09:22:49;;;;;;;;;;;15.10;59.90;;;;;;6128178;23;20243;-95
2023/04/16 09:25:15;;;;;;;;;;;15.10;62.10;;;;;;6128425;23;19905;-95
2023/04/16 09:27:40;;;;;;;;;;;15.30;59.40;;;;;;6128482;23;19912;-95
2023/04/16 09:30:22;;;;;;;;;;;15.30;57.10;;;;;;6128026;23;19964;-95
2023/04/16 09:32:49;;;;;;;;;;;15.40;57.70;;;;;;6128075;23;20335;-95
2023/04/16 09:35:15;;;;;;;;;;;15.40;57.60;;;;;;6128078;23;19905;-95
2023/04/16 09:37:41;;;;;;;;;;;15.40;60.20;;;;;;6128177;23;19951;-95
2023/04/16 09:40:07;;;;;;;;;;;15.40;60.50;;;;;;6127868;23;19987;-95
2023/04/16 09:42:34;;;;;;;;;;;15.50;59.80;;;;;;6128077;23;19908;-95
2023/04/16 09:44:59;;;;;;;;;;;15.60;59.60;;;;;;6128011;23;20338;-95
2023/04/16 09:47:36;;;;;;;;;;;15.60;57.20;;;;;;6127941;23;19912;-94
2023/04/16 09:50:02;;;;;;;;;;;15.60;55.40;;;;;;6127708;23;19991;-95
2023/04/16 09:52:28;;;;;;;;;;;15.70;54.50;;;;;;6127892;23;19943;-94
2023/04/16 09:54:53;;;;;;;;;;;15.70;56.70;;;;;;6127933;23;19905;-95
2023/04/16 09:57:20;;;;;;;;;;;15.80;58.30;;;;;;6127849;23;19905;-94
2023/04/16 09:59:46;;;;;;;;;;;15.80;54.30;;;;;;6127909;23;19928;-94
2023/04/16 10:02:11;;;;;;;;;;;15.80;56.50;;;;;;6101353;23;20228;-95
2023/04/16 10:04:47;;;;;;;;;;;15.80;57.10;;;;;;6127450;23;19911;-94
2023/04/16 10:07:13;;;;;;;;;;;15.80;55.60;;;;;;6127673;23;19909;-95
2023/04/16 10:09:38;;;;;;;;;;;15.80;55.80;;;;;;6127679;23;19940;-94
2023/04/16 10:12:04;;;;;;;;;;;15.80;53.70;;;;;;6127818;23;19905;-94
2023/04/16 10:14:30;;;;;;;;;;;15.80;52.40;;;;;;6127803;23;19932;-95
2023/04/16 10:16:56;;;;;;;;;;;15.80;52.80;;;;;;6101530;23;19905;-95
2023/04/16 10:19:23;;;;;;;;;;;15.80;52.70;;;;;;6127709;23;19913;-94
2023/04/16 10:21:48;;;;;;;;;;;15.90;53.10;;;;;;6127643;23;20008;-95
2023/04/16 10:24:16;;;;;;;;;;;16.00;55.50;;;;;;6127526;23;19940;-94
2023/04/16 10:26:42;;;;;;;;;;;16.20;51.70;;;;;;6127597;23;19984;-95
2023/04/16 10:29:08;;;;;;;;;;;16.20;53.50;;;;;;6127479;23;19905;-94
2023/04/16 10:31:35;;;;;;;;;;;16.20;50.60;;;;;;6127120;23;19916;-94
2023/04/16 10:34:02;;;;;;;;;;;16.20;48.70;;;;;;6127627;23;19932;-95
2023/04/16 10:36:27;;;;;;;;;;;16.20;54.20;;;;;;6127529;23;19948;-95
2023/04/16 10:38:57;;;;;;;;;;;16.30;53.60;;;;;;6127699;23;20335;-95
2023/04/16 10:41:24;;;;;;;;;;;16.40;47.90;;;;;;6127340;23;19909;-95
2023/04/16 10:43:50;;;;;;;;;;;16.30;48.10;;;;;;6127438;23;19937;-94
2023/04/16 10:46:17;;;;;;;;;;;16.40;50.10;;;;;;6127279;23;19905;-94
2023/04/16 10:48:42;;;;;;;;;;;16.40;49.90;;;;;;6127258;23;20323;-94
2023/04/16 10:51:21;;;;;;;;;;;16.50;47.90;;;;;;6127068;23;19984;-94
2023/04/16 10:53:47;;;;;;;;;;;16.40;50.70;;;;;;6127114;23;19905;-94
2023/04/16 10:56:12;;;;;;;;;;;16.50;50.40;;;;;;6127077;23;20358;-95
2023/04/16 10:58:38;;;;;;;;;;;16.50;50.30;;;;;;6127535;23;20284;-95
2023/04/16 11:01:12;;;;;;;;;;;16.60;49.50;;;;;;6126935;23;20243;-95
2023/04/16 11:03:41;;;;;;;;;;;16.70;51.70;;;;;;6126941;23;19905;-94
2023/04/16 11:06:15;;;;;;;;;;;16.80;47.10;;;;;;6127185;23;19934;-94
2023/04/16 11:08:42;;;;;;;;;;;16.80;46.80;;;;;;6126976;23;19908;-95
2023/04/16 11:11:08;;;;;;;;;;;16.90;47.00;;;;;;6126846;23;19909;-94
2023/04/16 11:13:35;;;;;;;;;;;17.00;48.50;;;;;;6126955;23;19905;-94
2023/04/16 11:16:01;;;;;;;;;;;17.10;47.20;;;;;;6127098;23;19912;-95
2023/04/16 11:18:26;;;;;;;;;;;17.00;45.40;;;;;;6126828;23;19913;-94
2023/04/16 11:20:52;;;;;;;;;;;17.00;45.40;;;;;;6127063;23;19958;-94
2023/04/16 11:23:17;;;;;;;;;;;17.10;47.70;;;;;;6126991;23;19905;-95
2023/04/16 11:25:43;;;;;;;;;;;17.20;47.60;;;;;;6126948;23;19943;-95
2023/04/16 11:28:09;;;;;;;;;;;17.40;51.80;;;;;;6127028;23;19976;-95
2023/04/16 11:30:36;;;;;;;;;;;17.60;45.10;;;;;;6126864;23;20369;-95
2023/04/16 11:33:10;;;;;;;;;;;17.70;49.00;;;;;;6126834;23;19909;-94
2023/04/16 11:35:40;;;;;;;;;;;17.70;46.00;;;;;;6126676;23;19983;-95
2023/04/16 11:38:06;;;;;;;;;;;17.60;49.50;;;;;;6126886;23;19932;-94
2023/04/16 11:40:31;;;;;;;;;;;17.80;48.40;;;;;;6126640;23;19984;-95
2023/04/16 11:43:13;;;;;;;;;;;17.90;47.20;;;;;;6126647;23;19936;-94
2023/04/16 11:45:40;;;;;;;;;;;17.90;46.60;;;;;;6126726;23;19905;-94
2023/04/16 11:48:05;;;;;;;;;;;18.00;46.60;;;;;;6126584;23;19905;-95
2023/04/16 11:50:31;;;;;;;;;;;18.10;50.20;;;;;;6126686;23;19909;-94
2023/04/16 11:53:02;;;;;;;;;;;18.10;46.20;;;;;;6126721;23;20235;-95
2023/04/16 11:55:28;;;;;;;;;;;18.20;51.00;;;;;;6126832;23;19905;-95
2023/04/16 11:57:53;;;;;;;;;;;18.50;49.00;;;;;;6126621;23;19909;-95
2023/04/16 12:00:19;;;;;;;;;;;18.80;46.00;;;;;;6126655;23;19905;-95
2023/04/16 12:02:48;;;;;;;;;;;18.90;44.20;;;;;;6126148;23;19920;-95
2023/04/16 12:05:27;;;;;;;;;;;19.20;46.20;;;;;;6126772;23;19909;-95
2023/04/16 12:07:53;;;;;;;;;;;19.50;46.10;;;;;;6126999;23;19905;-95
2023/04/16 12:10:19;;;;;;;;;;;19.70;40.60;;;;;;6126593;23;19916;-94
2023/04/16 12:12:44;;;;;;;;;;;20.00;40.90;;;;;;6126456;23;20342;-94
2023/04/16 12:15:10;;;;;;;;;;;20.40;43.40;;;;;;6126520;23;20254;-95
2023/04/16 12:17:36;;;;;;;;;;;20.60;40.50;;;;;;6126710;23;19956;-94
2023/04/16 12:20:04;;;;;;;;;;;20.80;44.50;;;;;;6126687;23;19909;-95
2023/04/16 12:22:34;;;;;;;;;;;21.30;42.60;;;;;;6100589;23;19909;-95
2023/04/16 12:25:01;;;;;;;;;;;21.70;42.80;;;;;;6126528;23;19905;-95
2023/04/16 12:28:00;;;;;;;;;;;22.00;40.70;;;;;;6126782;23;19916;-95
2023/04/16 12:30:26;;;;;;;;;;;21.90;39.00;;;;;;6047701;23;20216;-95
2023/04/16 12:33:11;;;;;;;;;;;22.50;40.00;;;;;;6126589;23;19961;-95
2023/04/16 12:35:37;;;;;;;;;;;22.90;38.20;;;;;;6126640;23;19905;-95
2023/04/16 12:38:02;;;;;;;;;;;23.40;39.90;;;;;;6126578;23;19911;-94
2023/04/16 12:40:28;;;;;;;;;;;23.60;37.70;;;;;;6127634;23;20280;-94
2023/04/16 12:42:54;;;;;;;;;;;23.70;37.30;;;;;;6128719;23;20315;-94
2023/04/16 12:45:19;;;;;;;;;;;23.40;42.40;;;;;;6128380;23;19952;-94
2023/04/16 12:47:45;;;;;;;;;;;23.60;39.70;;;;;;6128214;23;20331;-95
2023/04/16 12:50:11;;;;;;;;;;;24.30;36.80;;;;;;6128372;23;19909;-95
2023/04/16 12:52:36;;;;;;;;;;;24.80;35.50;;;;;;6128414;23;19905;-95
2023/04/16 12:55:02;;;;;;;;;;;25.10;34.80;;;;;;6128268;23;19905;-95
2023/04/16 12:57:27;;;;;;;;;;;25.40;36.10;;;;;;6128544;23;19971;-95
2023/04/16 12:59:55;;;;;;;;;;;25.30;34.90;;;;;;6128383;23;20346;-95
2023/04/16 13:02:20;;;;;;;;;;;25.20;34.10;;;;;;6127961;23;19961;-95
2023/04/16 13:04:46;;;;;;;;;;;24.30;37.50;;;;;;6128378;23;20246;-95
2023/04/16 13:07:11;;;;;;;;;;;23.60;40.00;;;;;;6128414;23;19928;-95
2023/04/16 13:09:37;;;;;;;;;;;23.30;38.20;;;;;;6102249;23;19940;-95
2023/04/16 13:12:02;;;;;;;;;;;23.30;37.80;;;;;;6128213;23;19905;-95
2023/04/16 13:14:28;;;;;;;;;;;23.30;43.10;;;;;;6128144;23;19905;-95
2023/04/16 13:16:54;;;;;;;;;;;23.70;36.30;;;;;;6128446;23;19913;-95
2023/04/16 13:19:20;;;;;;;;;;;24.30;38.70;;;;;;6128045;23;20331;-95
2023/04/16 13:21:45;;;;;;;;;;;24.00;39.80;;;;;;6102237;23;19927;-94
2023/04/16 13:24:11;;;;;;;;;;;23.80;41.90;;;;;;6128004;23;20339;-95
2023/04/16 13:26:36;;;;;;;;;;;23.60;41.40;;;;;;6127980;23;19905;-94
2023/04/16 13:29:02;;;;;;;;;;;23.50;40.60;;;;;;6127828;23;19909;-94
2023/04/16 13:31:27;;;;;;;;;;;23.10;41.60;;;;;;6127831;23;20324;-95
2023/04/16 13:33:53;;;;;;;;;;;22.80;39.80;;;;;;6127818;23;19915;-95
2023/04/16 13:36:18;;;;;;;;;;;22.70;42.20;;;;;;6127841;23;19905;-95
2023/04/16 13:38:44;;;;;;;;;;;22.50;39.40;;;;;;6101687;23;19905;-95
2023/04/16 13:41:10;;;;;;;;;;;21.80;42.10;;;;;;6128057;23;20331;-95
2023/04/16 13:43:35;;;;;;;;;;;21.50;42.10;;;;;;6127845;23;19905;-94
2023/04/16 13:46:01;;;;;;;;;;;21.30;43.00;;;;;;6127791;23;20207;-94
2023/04/16 13:48:27;;;;;;;;;;;21.50;44.80;;;;;;6127875;23;19909;-95
2023/04/16 13:50:52;;;;;;;;;;;21.90;42.00;;;;;;6127566;23;19909;-94
2023/04/16 13:53:18;;;;;;;;;;;21.90;44.50;;;;;;6127398;23;19912;-95
2023/04/16 13:55:43;;;;;;;;;;;21.70;42.30;;;;;;6127686;23;19909;-95
2023/04/16 13:58:10;;;;;;;;;;;20.90;42.80;;;;;;6127684;23;20247;-95
2023/04/16 14:00:36;;;;;;;;;;;20.30;45.80;;;;;;6127675;23;20279;-95
2023/04/16 14:03:01;;;;;;;;;;;19.80;46.60;;;;;;6127126;23;19921;-94
2023/04/16 14:05:27;;;;;;;;;;;19.50;45.60;;;;;;6127671;23;20247;-94
2023/04/16 14:07:52;;;;;;;;;;;19.10;48.20;;;;;;6127618;23;19919;-94
2023/04/16 14:10:18;;;;;;;;;;;19.00;49.30;;;;;;6127792;23;20236;-94
2023/04/16 14:12:44;;;;;;;;;;;19.10;48.40;;;;;;6127527;23;19905;-95
2023/04/16 14:15:10;;;;;;;;;;;20.00;47.50;;;;;;6127640;23;19905;-95
2023/04/16 14:17:38;;;;;;;;;;;20.70;46.20;;;;;;6127518;23;19987;-95
2023/04/16 14:20:04;;;;;;;;;;;21.10;45.60;;;;;;6101480;23;19912;-95
2023/04/16 14:22:30;;;;;;;;;;;21.30;43.60;;;;;;6127524;23;19909;-94
2023/04/16 14:24:55;;;;;;;;;;;21.20;43.80;;;;;;6127343;23;19983;-94
2023/04/16 14:27:21;;;;;;;;;;;21.50;45.10;;;;;;6127484;23;19905;-95
2023/04/16 14:29:47;;;;;;;;;;;22.10;42.60;;;;;;6127212;23;19916;-95
2023/04/16 14:32:12;;;;;;;;;;;22.90;42.80;;;;;;6127443;23;19912;-94
2023/04/16 14:34:38;;;;;;;;;;;23.50;40.30;;;;;;6127289;23;20323;-95
2023/04/16 14:37:04;;;;;;;;;;;23.80;39.70;;;;;;6127226;23;19909;-95
2023/04/16 14:39:30;;;;;;;;;;;23.90;37.60;;;;;;6127153;23;19909;-95
2023/04/16 14:41:55;;;;;;;;;;;24.10;37.40;;;;;;6127137;23;19958;-94
2023/04/16 14:44:21;;;;;;;;;;;24.10;38.20;;;;;;6127231;23;19905;-94
2023/04/16 14:46:47;;;;;;;;;;;23.60;39.20;;;;;;6125425;23;19905;-94
2023/04/16 14:49:13;;;;;;;;;;;23.50;39.30;;;;;;6127007;23;20308;-94
2023/04/16 14:51:39;;;;;;;;;;;23.40;38.40;;;;;;6126641;23;19920;-94
2023/04/16 14:54:05;;;;;;;;;;;22.90;38.30;;;;;;6126948;23;20359;-94
2023/04/16 14:56:30;;;;;;;;;;;22.50;41.00;;;;;;6126940;23;19960;-94
2023/04/16 14:58:56;;;;;;;;;;;22.30;40.30;;;;;;6126829;23;19905;-94
2023/04/16 15:01:21;;;;;;;;;;;22.30;40.50;;;;;;6100481;23;19909;-94
2023/04/16 15:03:47;;;;;;;;;;;23.00;39.90;;;;;;6126157;23;19905;-94
2023/04/16 15:06:13;;;;;;;;;;;23.70;38.60;;;;;;6126759;23;19905;-94
2023/04/16 15:08:38;;;;;;;;;;;24.40;38.40;;;;;;6126754;23;19905;-94
2023/04/16 15:11:04;;;;;;;;;;;24.50;36.20;;;;;;6126447;23;19948;-94
2023/04/16 15:13:32;;;;;;;;;;;24.30;36.50;;;;;;6126740;23;20399;-94
2023/04/16 15:16:01;;;;;;;;;;;24.20;36.30;;;;;;6126592;23;19905;-94
2023/04/16 15:18:28;;;;;;;;;;;24.20;37.60;;;;;;6126596;23;20387;-94
2023/04/16 15:20:54;;;;;;;;;;;24.60;36.80;;;;;;6126571;23;20327;-95
2023/04/16 15:23:19;;;;;;;;;;;24.70;35.00;;;;;;6126626;23;19904;-94
2023/04/16 15:25:45;;;;;;;;;;;24.60;36.00;;;;;;6126724;23;19905;-94
2023/04/16 15:28:11;;;;;;;;;;;24.00;38.70;;;;;;6129905;23;19912;-95
2023/04/16 15:30:40;;;;;;;;;;;23.30;37.10;;;;;;6155660;23;19909;-94
2023/04/16 15:33:06;;;;;;;;;;;22.90;38.20;;;;;;6156106;23;19991;-95
2023/04/16 15:35:31;;;;;;;;;;;22.50;38.40;;;;;;6156452;23;19943;-95
2023/04/16 15:37:57;;;;;;;;;;;21.50;39.50;;;;;;6156236;23;19905;-94
2023/04/16 15:40:25;;;;;;;;;;;21.30;41.40;;;;;;6155986;23;20243;-94
2023/04/16 15:42:51;;;;;;;;;;;20.90;44.60;;;;;;6156112;23;19905;-95
2023/04/16 15:45:17;;;;;;;;;;;20.80;43.60;;;;;;6156011;23;20239;-94
2023/04/16 15:47:46;;;;;;;;;;;20.40;43.20;;;;;;6155882;23;19932;-95
2023/04/16 15:50:12;;;;;;;;;;;20.10;46.10;;;;;;6129708;23;19909;-95
2023/04/16 15:52:38;;;;;;;;;;;19.80;43.40;;;;;;6155998;23;19912;-94
2023/04/16 15:55:04;;;;;;;;;;;19.50;46.40;;;;;;6156084;23;19905;-93
2023/04/16 15:57:29;;;;;;;;;;;19.30;46.20;;;;;;6155977;23;20323;-94
2023/04/16 15:59:56;;;;;;;;;;;19.00;46.60;;;;;;6155851;23;19916;-94
2023/04/16 16:02:22;;;;;;;;;;;18.80;47.00;;;;;;6155462;23;20013;-94
2023/04/16 16:04:47;;;;;;;;;;;18.40;45.90;;;;;;6156061;23;20313;-94
2023/04/16 16:07:18;;;;;;;;;;;18.20;48.10;;;;;;6155922;23;19956;-93
2023/04/16 16:09:46;;;;;;;;;;;17.90;47.20;;;;;;6155650;23;19905;-94
2023/04/16 16:12:12;;;;;;;;;;;17.50;49.40;;;;;;6155850;23;19905;-94
2023/04/16 16:14:37;;;;;;;;;;;17.40;51.60;;;;;;6156145;23;19911;-94
2023/04/16 16:17:03;;;;;;;;;;;17.20;50.10;;;;;;6157883;23;19905;-94
2023/04/16 16:19:28;;;;;;;;;;;17.00;50.00;;;;;;6157868;23;20238;-94
2023/04/16 16:21:54;;;;;;;;;;;16.90;50.50;;;;;;6157838;23;20350;-94
2023/04/16 16:24:19;;;;;;;;;;;16.80;51.60;;;;;;6157717;23;19947;-93
2023/04/16 16:26:45;;;;;;;;;;;16.80;51.30;;;;;;6158131;23;19987;-94
2023/04/16 16:29:10;;;;;;;;;;;16.70;50.10;;;;;;6157711;23;20231;-93
2023/04/16 16:31:36;;;;;;;;;;;16.60;50.00;;;;;;6157712;23;19909;-93
2023/04/16 16:34:01;;;;;;;;;;;16.60;51.80;;;;;;6157775;23;19908;-93
2023/04/16 16:36:28;;;;;;;;;;;16.60;51.70;;;;;;6157725;23;19913;-94
2023/04/16 16:38:54;;;;;;;;;;;16.60;51.40;;;;;;6157854;23;19911;-94
2023/04/16 16:41:20;;;;;;;;;;;16.70;52.00;;;;;;6157401;23;20299;-94
2023/04/16 16:43:45;;;;;;;;;;;16.70;51.30;;;;;;6157542;23;20358;-93
2023/04/16 16:46:11;;;;;;;;;;;16.70;51.50;;;;;;6157681;23;19912;-94
2023/04/16 16:48:36;;;;;;;;;;;16.60;52.00;;;;;;6157582;23;19905;-93
2023/04/16 16:51:02;;;;;;;;;;;16.50;52.10;;;;;;6131504;23;19908;-95
2023/04/16 16:53:27;;;;;;;;;;;16.50;53.20;;;;;;6157560;23;19967;-94
2023/04/16 16:55:53;;;;;;;;;;;16.40;52.30;;;;;;6157522;23;19904;-95
2023/04/16 16:58:18;;;;;;;;;;;16.40;52.70;;;;;;6157844;23;19911;-95
2023/04/16 17:00:44;;;;;;;;;;;16.30;53.60;;;;;;6157625;23;20246;-94
2023/04/16 17:03:09;;;;;;;;;;;16.40;53.30;;;;;;6157175;23;19923;-94